sensor_id;sensor_type;location;lat;lon;timestamp;pressure;altitude;pressure_sealevel;temperature;humidity
44441;BME280;30146;52.268;20.944;2022-11-09T00:02:04;100375.83;;;8.00;71.03
44441;BME280;30146;52.268;20.944;2022-11-09T00:04:35;100374.30;;;7.99;71.18
44441;BME280;30146;52.268;20.944;2022-11-09T00:07:06;100377.54;;;7.98;71.23
44441;BME280;30146;52.268;20.944;2022-11-09T00:09:37;100370.89;;;7.96;71.26
44441;BME280;30146;52.268;20.944;2022-11-09T00:12:08;100370.73;;;7.92;71.23
44441;BME280;30146;52.268;20.944;2022-11-09T00:14:39;100368.33;;;7.90;71.22
44441;BME280;30146;52.268;20.944;2022-11-09T00:17:10;100367.82;;;7.88;71.33
44441;BME280;30146;52.268;20.944;2022-11-09T00:19:42;100373.27;;;7.87;71.50
44441;BME280;30146;52.268;20.944;2022-11-09T00:22:12;100369.68;;;7.87;71.59
44441;BME280;30146;52.268;20.944;2022-11-09T00:24:43;100367.98;;;7.85;71.57
44441;BME280;30146;52.268;20.944;2022-11-09T00:27:14;100372.91;;;7.85;71.59
44441;BME280;30146;52.268;20.944;2022-11-09T00:29:46;100365.77;;;7.84;71.73
44441;BME280;30146;52.268;20.944;2022-11-09T00:32:19;100361.67;;;7.85;71.76
44441;BME280;30146;52.268;20.944;2022-11-09T00:34:56;100361.67;;;7.85;71.83
44441;BME280;30146;52.268;20.944;2022-11-09T00:37:31;100363.55;;;7.86;71.74
44441;BME280;30146;52.268;20.944;2022-11-09T00:40:02;100367.13;;;7.86;71.94
44441;BME280;30146;52.268;20.944;2022-11-09T00:42:33;100369.86;;;7.87;71.86
44441;BME280;30146;52.268;20.944;2022-11-09T00:45:05;100361.85;;;7.88;71.91
44441;BME280;30146;52.268;20.944;2022-11-09T00:47:36;100361.01;;;7.88;71.99
44441;BME280;30146;52.268;20.944;2022-11-09T00:50:08;100363.21;;;7.89;71.85
44441;BME280;30146;52.268;20.944;2022-11-09T00:52:39;100364.25;;;7.89;71.98
44441;BME280;30146;52.268;20.944;2022-11-09T00:55:10;100361.86;;;7.91;72.13
44441;BME280;30146;52.268;20.944;2022-11-09T00:57:41;100357.95;;;7.92;72.09
44441;BME280;30146;52.268;20.944;2022-11-09T01:00:15;100358.64;;;7.92;71.88
44441;BME280;30146;52.268;20.944;2022-11-09T01:02:48;100358.80;;;7.92;71.98
44441;BME280;30146;52.268;20.944;2022-11-09T01:05:20;100356.93;;;7.93;72.00
44441;BME280;30146;52.268;20.944;2022-11-09T01:07:51;100350.98;;;7.93;71.95
44441;BME280;30146;52.268;20.944;2022-11-09T01:10:25;100349.11;;;7.93;71.99
44441;BME280;30146;52.268;20.944;2022-11-09T01:12:56;100346.73;;;7.94;72.06
44441;BME280;30146;52.268;20.944;2022-11-09T01:15:27;100349.44;;;7.95;72.06
44441;BME280;30146;52.268;20.944;2022-11-09T01:17:58;100353.88;;;7.95;72.08
44441;BME280;30146;52.268;20.944;2022-11-09T01:20:29;100351.48;;;7.95;71.98
44441;BME280;30146;52.268;20.944;2022-11-09T01:23:01;100352.50;;;7.97;72.11
44441;BME280;30146;52.268;20.944;2022-11-09T01:25:32;100352.34;;;7.98;72.09
44441;BME280;30146;52.268;20.944;2022-11-09T01:28:04;100351.32;;;7.97;72.01
44441;BME280;30146;52.268;20.944;2022-11-09T01:30:37;100350.98;;;7.97;71.96
44441;BME280;30146;52.268;20.944;2022-11-09T01:33:10;100347.91;;;7.97;71.92
44441;BME280;30146;52.268;20.944;2022-11-09T01:35:41;100348.42;;;7.96;72.02
44441;BME280;30146;52.268;20.944;2022-11-09T01:38:12;100348.42;;;7.95;72.04
44441;BME280;30146;52.268;20.944;2022-11-09T01:40:43;100347.41;;;7.94;72.06
44441;BME280;30146;52.268;20.944;2022-11-09T01:43:19;100340.77;;;7.93;71.96
44441;BME280;30146;52.268;20.944;2022-11-09T01:45:53;100344.16;;;7.93;72.15
44441;BME280;30146;52.268;20.944;2022-11-09T01:48:25;100339.73;;;7.92;71.94
44441;BME280;30146;52.268;20.944;2022-11-09T01:51:06;100336.86;;;7.89;71.99
44441;BME280;30146;52.268;20.944;2022-11-09T01:53:42;100341.61;;;7.87;71.98
44441;BME280;30146;52.268;20.944;2022-11-09T01:56:17;100337.17;;;7.85;71.96
44441;BME280;30146;52.268;20.944;2022-11-09T01:58:51;100334.77;;;7.83;71.92
44441;BME280;30146;52.268;20.944;2022-11-09T02:01:25;100330.71;;;7.81;72.07
44441;BME280;30146;52.268;20.944;2022-11-09T02:04:00;100326.44;;;7.79;72.10
44441;BME280;30146;52.268;20.944;2022-11-09T02:06:33;100325.08;;;7.77;71.92
44441;BME280;30146;52.268;20.944;2022-11-09T02:09:11;100325.92;;;7.75;72.10
44441;BME280;30146;52.268;20.944;2022-11-09T02:11:45;100325.58;;;7.74;72.01
44441;BME280;30146;52.268;20.944;2022-11-09T02:14:16;100328.30;;;7.72;72.02
44441;BME280;30146;52.268;20.944;2022-11-09T02:16:48;100330.67;;;7.70;72.09
44441;BME280;30146;52.268;20.944;2022-11-09T02:19:19;100325.75;;;7.69;72.16
44441;BME280;30146;52.268;20.944;2022-11-09T02:21:50;100324.56;;;7.67;72.27
44441;BME280;30146;52.268;20.944;2022-11-09T02:24:21;100322.16;;;7.65;72.14
44441;BME280;30146;52.268;20.944;2022-11-09T02:26:52;100321.83;;;7.64;72.21
44441;BME280;30146;52.268;20.944;2022-11-09T02:29:26;100316.38;;;7.62;72.34
44441;BME280;30146;52.268;20.944;2022-11-09T02:32:01;100316.03;;;7.61;72.30
44441;BME280;30146;52.268;20.944;2022-11-09T02:34:34;100309.06;;;7.60;72.26
44441;BME280;30146;52.268;20.944;2022-11-09T02:37:05;100310.59;;;7.59;72.38
44441;BME280;30146;52.268;20.944;2022-11-09T02:39:36;100310.25;;;7.57;72.32
44441;BME280;30146;52.268;20.944;2022-11-09T02:42:10;100311.10;;;7.55;72.37
44441;BME280;30146;52.268;20.944;2022-11-09T02:44:53;100310.92;;;7.54;72.48
44441;BME280;30146;52.268;20.944;2022-11-09T02:47:26;100310.40;;;7.53;72.50
44441;BME280;30146;52.268;20.944;2022-11-09T02:49:57;100307.67;;;7.51;72.51
44441;BME280;30146;52.268;20.944;2022-11-09T02:52:28;100314.30;;;7.50;72.59
44441;BME280;30146;52.268;20.944;2022-11-09T02:54:59;100311.07;;;7.47;72.51
44441;BME280;30146;52.268;20.944;2022-11-09T02:57:30;100312.77;;;7.46;72.52
44441;BME280;30146;52.268;20.944;2022-11-09T03:00:02;100312.08;;;7.43;72.62
44441;BME280;30146;52.268;20.944;2022-11-09T03:02:34;100316.66;;;7.42;72.71
44441;BME280;30146;52.268;20.944;2022-11-09T03:05:07;100316.33;;;7.42;72.71
44441;BME280;30146;52.268;20.944;2022-11-09T03:07:40;100320.06;;;7.41;72.76
44441;BME280;30146;52.268;20.944;2022-11-09T03:10:11;100317.51;;;7.41;72.82
44441;BME280;30146;52.268;20.944;2022-11-09T03:12:42;100315.46;;;7.40;72.84
44441;BME280;30146;52.268;20.944;2022-11-09T03:15:15;100315.64;;;7.39;72.96
44441;BME280;30146;52.268;20.944;2022-11-09T03:17:47;100313.94;;;7.39;72.81
44441;BME280;30146;52.268;20.944;2022-11-09T03:20:19;100321.59;;;7.39;72.93
44441;BME280;30146;52.268;20.944;2022-11-09T03:22:50;100323.11;;;7.38;73.00
44441;BME280;30146;52.268;20.944;2022-11-09T03:25:21;100323.97;;;7.38;73.05
44441;BME280;30146;52.268;20.944;2022-11-09T03:27:57;100323.27;;;7.37;72.94
44441;BME280;30146;52.268;20.944;2022-11-09T03:30:29;100320.71;;;7.36;72.97
44441;BME280;30146;52.268;20.944;2022-11-09T03:33:01;100320.55;;;7.34;73.05
44441;BME280;30146;52.268;20.944;2022-11-09T03:35:33;100319.19;;;7.34;73.12
44441;BME280;30146;52.268;20.944;2022-11-09T03:38:04;100322.23;;;7.34;73.10
44441;BME280;30146;52.268;20.944;2022-11-09T03:40:35;100320.55;;;7.33;73.19
44441;BME280;30146;52.268;20.944;2022-11-09T03:43:06;100323.44;;;7.34;73.14
44441;BME280;30146;52.268;20.944;2022-11-09T03:45:37;100322.41;;;7.34;73.13
44441;BME280;30146;52.268;20.944;2022-11-09T03:48:08;100317.65;;;7.33;73.04
44441;BME280;30146;52.268;20.944;2022-11-09T03:50:39;100318.52;;;7.33;73.20
44441;BME280;30146;52.268;20.944;2022-11-09T03:53:11;100318.34;;;7.31;73.22
44441;BME280;30146;52.268;20.944;2022-11-09T03:55:42;100316.29;;;7.30;73.24
44441;BME280;30146;52.268;20.944;2022-11-09T03:58:14;100311.67;;;7.30;73.24
44441;BME280;30146;52.268;20.944;2022-11-09T04:00:45;100309.82;;;7.29;73.37
44441;BME280;30146;52.268;20.944;2022-11-09T04:03:15;100305.40;;;7.30;73.38
44441;BME280;30146;52.268;20.944;2022-11-09T04:05:47;100297.92;;;7.30;73.37
44441;BME280;30146;52.268;20.944;2022-11-09T04:08:18;100296.05;;;7.30;73.43
44441;BME280;30146;52.268;20.944;2022-11-09T04:10:49;100302.00;;;7.29;73.37
44441;BME280;30146;52.268;20.944;2022-11-09T04:13:19;100305.57;;;7.30;73.47
44441;BME280;30146;52.268;20.944;2022-11-09T04:15:51;100301.33;;;7.30;73.51
44441;BME280;30146;52.268;20.944;2022-11-09T04:18:22;100300.30;;;7.29;73.39
44441;BME280;30146;52.268;20.944;2022-11-09T04:20:53;100295.36;;;7.27;73.44
44441;BME280;30146;52.268;20.944;2022-11-09T04:23:23;100301.32;;;7.26;73.46
44441;BME280;30146;52.268;20.944;2022-11-09T04:25:56;100300.11;;;7.27;73.51
44441;BME280;30146;52.268;20.944;2022-11-09T04:28:27;100298.93;;;7.27;73.68
44441;BME280;30146;52.268;20.944;2022-11-09T04:31:02;100297.91;;;7.29;73.68
44441;BME280;30146;52.268;20.944;2022-11-09T04:33:32;100295.02;;;7.27;73.44
44441;BME280;30146;52.268;20.944;2022-11-09T04:36:04;100295.36;;;7.27;73.49
44441;BME280;30146;52.268;20.944;2022-11-09T04:38:35;100294.67;;;7.26;73.61
44441;BME280;30146;52.268;20.944;2022-11-09T04:41:06;100300.29;;;7.26;73.63
44441;BME280;30146;52.268;20.944;2022-11-09T04:43:37;100297.23;;;7.26;73.73
44441;BME280;30146;52.268;20.944;2022-11-09T04:46:08;100294.16;;;7.25;73.58
44441;BME280;30146;52.268;20.944;2022-11-09T04:48:39;100293.83;;;7.24;73.59
44441;BME280;30146;52.268;20.944;2022-11-09T04:51:11;100297.56;;;7.22;73.58
44441;BME280;30146;52.268;20.944;2022-11-09T04:53:41;100297.55;;;7.20;73.59
44441;BME280;30146;52.268;20.944;2022-11-09T04:56:12;100300.43;;;7.18;73.55
44441;BME280;30146;52.268;20.944;2022-11-09T04:58:43;100297.35;;;7.16;73.65
44441;BME280;30146;52.268;20.944;2022-11-09T05:01:15;100296.17;;;7.14;73.67
44441;BME280;30146;52.268;20.944;2022-11-09T05:03:46;100292.59;;;7.12;73.72
44441;BME280;30146;52.268;20.944;2022-11-09T05:06:17;100297.17;;;7.11;73.76
44441;BME280;30146;52.268;20.944;2022-11-09T05:09:04;100297.50;;;7.08;73.74
44441;BME280;30146;52.268;20.944;2022-11-09T05:11:36;100292.91;;;7.06;73.80
44441;BME280;30146;52.268;20.944;2022-11-09T05:14:07;100290.35;;;7.05;73.82
44441;BME280;30146;52.268;20.944;2022-11-09T05:16:38;100292.38;;;7.03;73.85
44441;BME280;30146;52.268;20.944;2022-11-09T05:19:09;100295.27;;;7.02;73.90
44441;BME280;30146;52.268;20.944;2022-11-09T05:21:40;100294.74;;;7.01;73.98
44441;BME280;30146;52.268;20.944;2022-11-09T05:24:12;100295.60;;;7.00;73.95
44441;BME280;30146;52.268;20.944;2022-11-09T05:26:42;100295.07;;;6.98;73.94
44441;BME280;30146;52.268;20.944;2022-11-09T05:29:14;100292.86;;;6.98;73.99
44441;BME280;30146;52.268;20.944;2022-11-09T05:31:46;100291.85;;;6.98;74.26
44441;BME280;30146;52.268;20.944;2022-11-09T05:34:21;100289.48;;;6.99;74.15
44441;BME280;30146;52.268;20.944;2022-11-09T05:36:52;100295.09;;;7.00;74.29
44441;BME280;30146;52.268;20.944;2022-11-09T05:39:34;100293.39;;;7.00;74.33
44441;BME280;30146;52.268;20.944;2022-11-09T05:42:06;100296.79;;;7.03;74.43
44441;BME280;30146;52.268;20.944;2022-11-09T05:44:45;100302.08;;;7.04;74.36
44441;BME280;30146;52.268;20.944;2022-11-09T05:47:42;100300.21;;;7.05;74.33
44441;BME280;30146;52.268;20.944;2022-11-09T05:50:55;100302.09;;;7.07;74.30
44441;BME280;30146;52.268;20.944;2022-11-09T05:56:18;100300.59;;;7.13;74.37
44441;BME280;30146;52.268;20.944;2022-11-09T05:58:49;100291.06;;;7.14;74.28
44441;BME280;30146;52.268;20.944;2022-11-09T06:01:20;100293.96;;;7.16;74.31
44441;BME280;30146;52.268;20.944;2022-11-09T06:03:55;100296.17;;;7.19;74.19
44441;BME280;30146;52.268;20.944;2022-11-09T06:06:26;100303.34;;;7.23;74.32
44441;BME280;30146;52.268;20.944;2022-11-09T06:08:58;100302.33;;;7.26;74.36
44441;BME280;30146;52.268;20.944;2022-11-09T06:11:33;100304.21;;;7.31;74.51
44441;BME280;30146;52.268;20.944;2022-11-09T06:14:04;100305.77;;;7.38;74.40
44441;BME280;30146;52.268;20.944;2022-11-09T06:16:38;100306.80;;;7.42;74.41
44441;BME280;30146;52.268;20.944;2022-11-09T06:19:09;100307.31;;;7.44;74.18
44441;BME280;30146;52.268;20.944;2022-11-09T06:21:40;100303.59;;;7.49;74.20
44441;BME280;30146;52.268;20.944;2022-11-09T06:24:11;100307.17;;;7.54;74.13
44441;BME280;30146;52.268;20.944;2022-11-09T06:26:42;100304.63;;;7.59;74.12
44441;BME280;30146;52.268;20.944;2022-11-09T06:29:17;100311.62;;;7.66;74.16
44441;BME280;30146;52.268;20.944;2022-11-09T06:31:51;100319.13;;;7.74;74.16
44441;BME280;30146;52.268;20.944;2022-11-09T06:34:32;100324.06;;;7.82;74.20
44441;BME280;30146;52.268;20.944;2022-11-09T06:37:03;100321.02;;;7.92;74.00
44441;BME280;30146;52.268;20.944;2022-11-09T06:39:34;100318.64;;;7.99;73.75
44441;BME280;30146;52.268;20.944;2022-11-09T06:42:05;100315.75;;;8.04;73.73
44441;BME280;30146;52.268;20.944;2022-11-09T06:44:36;100318.81;;;8.07;73.58
44441;BME280;30146;52.268;20.944;2022-11-09T06:47:07;100319.67;;;8.12;73.58
44441;BME280;30146;52.268;20.944;2022-11-09T06:49:38;100318.80;;;8.20;73.59
44441;BME280;30146;52.268;20.944;2022-11-09T06:52:11;100312.52;;;8.32;73.68
44441;BME280;30146;52.268;20.944;2022-11-09T06:54:42;100300.26;;;8.47;73.61
44441;BME280;30146;52.268;20.944;2022-11-09T06:57:13;100294.24;;;8.72;73.91
44441;BME280;30146;52.268;20.944;2022-11-09T06:59:44;100297.71;;;9.07;73.71
44441;BME280;30146;52.268;20.944;2022-11-09T07:02:16;100296.64;;;9.50;73.72
44441;BME280;30146;52.268;20.944;2022-11-09T07:04:48;100289.23;;;9.89;73.44
44441;BME280;30146;52.268;20.944;2022-11-09T07:07:21;100289.88;;;10.14;72.37
44441;BME280;30146;52.268;20.944;2022-11-09T07:09:58;100289.91;;;10.33;72.02
44441;BME280;30146;52.268;20.944;2022-11-09T07:12:29;100293.48;;;10.37;71.04
44441;BME280;30146;52.268;20.944;2022-11-09T07:15:01;100295.68;;;10.37;70.53
44441;BME280;30146;52.268;20.944;2022-11-09T07:17:33;100297.71;;;10.38;70.41
44441;BME280;30146;52.268;20.944;2022-11-09T07:20:09;100297.67;;;10.44;70.44
44441;BME280;30146;52.268;20.944;2022-11-09T07:22:42;100297.02;;;10.41;70.05
44441;BME280;30146;52.268;20.944;2022-11-09T07:25:13;100302.06;;;10.29;69.55
44441;BME280;30146;52.268;20.944;2022-11-09T07:27:44;100298.03;;;10.19;69.60
44441;BME280;30146;52.268;20.944;2022-11-09T07:30:19;100298.11;;;10.10;69.58
44441;BME280;30146;52.268;20.944;2022-11-09T07:32:50;100301.23;;;10.03;69.40
44441;BME280;30146;52.268;20.944;2022-11-09T07:35:38;100298.19;;;9.99;69.84
44441;BME280;30146;52.268;20.944;2022-11-09T07:38:09;100303.30;;;10.01;69.94
44441;BME280;30146;52.268;20.944;2022-11-09T07:40:41;100306.86;;;10.04;70.00
44441;BME280;30146;52.268;20.944;2022-11-09T07:43:13;100311.39;;;10.16;70.13
44441;BME280;30146;52.268;20.944;2022-11-09T07:45:47;100307.18;;;10.27;70.06
44441;BME280;30146;52.268;20.944;2022-11-09T07:48:18;100302.90;;;10.31;69.79
44441;BME280;30146;52.268;20.944;2022-11-09T07:50:50;100300.17;;;10.31;69.37
44441;BME280;30146;52.268;20.944;2022-11-09T07:53:21;100295.21;;;10.29;69.20
44441;BME280;30146;52.268;20.944;2022-11-09T07:55:58;100300.68;;;10.32;69.38
44441;BME280;30146;52.268;20.944;2022-11-09T07:58:30;100299.42;;;10.39;69.31
44441;BME280;30146;52.268;20.944;2022-11-09T08:01:07;100297.94;;;10.51;69.71
44441;BME280;30146;52.268;20.944;2022-11-09T08:03:37;100300.95;;;10.74;70.01
44441;BME280;30146;52.268;20.944;2022-11-09T08:06:08;100298.08;;;11.01;69.86
44441;BME280;30146;52.268;20.944;2022-11-09T08:08:47;100293.52;;;11.24;69.45
44441;BME280;30146;52.268;20.944;2022-11-09T08:11:18;100295.31;;;11.44;69.30
44441;BME280;30146;52.268;20.944;2022-11-09T08:13:50;100292.86;;;11.59;68.78
44441;BME280;30146;52.268;20.944;2022-11-09T08:16:21;100293.75;;;11.70;68.30
44441;BME280;30146;52.268;20.944;2022-11-09T08:18:53;100293.80;;;11.77;67.90
44441;BME280;30146;52.268;20.944;2022-11-09T08:21:28;100291.94;;;11.88;67.73
44441;BME280;30146;52.268;20.944;2022-11-09T08:23:59;100294.58;;;12.06;67.69
44441;BME280;30146;52.268;20.944;2022-11-09T08:26:30;100290.77;;;12.39;67.79
44441;BME280;30146;52.268;20.944;2022-11-09T08:29:01;100283.64;;;12.81;67.88
44441;BME280;30146;52.268;20.944;2022-11-09T08:31:33;100283.23;;;13.27;67.90
44441;BME280;30146;52.268;20.944;2022-11-09T08:34:04;100285.42;;;13.75;67.57
44441;BME280;30146;52.268;20.944;2022-11-09T08:36:35;100280.89;;;14.20;66.66
44441;BME280;30146;52.268;20.944;2022-11-09T08:39:07;100275.98;;;14.77;66.39
44441;BME280;30146;52.268;20.944;2022-11-09T08:41:42;100274.54;;;15.22;65.46
44441;BME280;30146;52.268;20.944;2022-11-09T08:44:13;100276.71;;;15.46;64.61
44441;BME280;30146;52.268;20.944;2022-11-09T08:46:44;100275.38;;;15.56;63.48
44441;BME280;30146;52.268;20.944;2022-11-09T08:49:15;100274.18;;;15.50;62.72
44441;BME280;30146;52.268;20.944;2022-11-09T08:51:46;100280.24;;;15.60;62.61
44441;BME280;30146;52.268;20.944;2022-11-09T08:54:20;100273.59;;;15.86;62.85
44441;BME280;30146;52.268;20.944;2022-11-09T08:56:55;100268.99;;;16.16;62.69
44441;BME280;30146;52.268;20.944;2022-11-09T08:59:26;100275.90;;;16.36;62.05
44441;BME280;30146;52.268;20.944;2022-11-09T09:01:57;100277.91;;;16.23;60.80
44441;BME280;30146;52.268;20.944;2022-11-09T09:04:28;100278.34;;;15.99;60.56
44441;BME280;30146;52.268;20.944;2022-11-09T09:07:03;100276.88;;;15.86;60.71
44441;BME280;30146;52.268;20.944;2022-11-09T09:09:35;100273.84;;;15.79;60.69
44441;BME280;30146;52.268;20.944;2022-11-09T09:12:08;100272.05;;;15.76;60.47
44441;BME280;30146;52.268;20.944;2022-11-09T09:14:39;100277.39;;;15.81;60.40
44441;BME280;30146;52.268;20.944;2022-11-09T09:17:11;100275.95;;;15.99;60.14
44441;BME280;30146;52.268;20.944;2022-11-09T09:19:45;100278.38;;;16.14;60.20
44441;BME280;30146;52.268;20.944;2022-11-09T09:22:18;100285.91;;;16.21;59.99
44441;BME280;30146;52.268;20.944;2022-11-09T09:24:49;100286.23;;;16.06;59.33
44441;BME280;30146;52.268;20.944;2022-11-09T09:27:20;100285.51;;;15.86;59.33
44441;BME280;30146;52.268;20.944;2022-11-09T09:29:52;100289.16;;;15.68;59.33
44441;BME280;30146;52.268;20.944;2022-11-09T09:32:26;100287.06;;;15.46;59.19
44441;BME280;30146;52.268;20.944;2022-11-09T09:34:59;100286.10;;;15.43;59.47
44441;BME280;30146;52.268;20.944;2022-11-09T09:37:30;100283.56;;;15.59;59.65
44441;BME280;30146;52.268;20.944;2022-11-09T09:40:01;100283.63;;;15.74;59.46
44441;BME280;30146;52.268;20.944;2022-11-09T09:42:35;100291.02;;;15.75;59.15
44441;BME280;30146;52.268;20.944;2022-11-09T09:45:14;100292.35;;;15.87;58.90
44441;BME280;30146;52.268;20.944;2022-11-09T09:47:52;100288.48;;;15.95;58.73
44441;BME280;30146;52.268;20.944;2022-11-09T09:50:33;100285.15;;;15.91;58.51
44441;BME280;30146;52.268;20.944;2022-11-09T09:53:13;100287.34;;;15.66;58.25
44441;BME280;30146;52.268;20.944;2022-11-09T09:55:59;100285.27;;;15.37;58.54
44441;BME280;30146;52.268;20.944;2022-11-09T09:58:36;100289.93;;;15.07;58.42
44441;BME280;30146;52.268;20.944;2022-11-09T10:01:13;100283.60;;;14.76;58.69
44441;BME280;30146;52.268;20.944;2022-11-09T10:03:45;100280.64;;;14.57;59.32
44441;BME280;30146;52.268;20.944;2022-11-09T10:06:33;100285.41;;;14.45;59.86
44441;BME280;30146;52.268;20.944;2022-11-09T10:09:17;100287.06;;;14.35;60.13
44441;BME280;30146;52.268;20.944;2022-11-09T10:12:02;100287.69;;;14.23;60.21
44441;BME280;30146;52.268;20.944;2022-11-09T10:17:50;100288.20;;;13.89;60.29
44441;BME280;30146;52.268;20.944;2022-11-09T10:20:34;100286.61;;;13.76;60.61
44441;BME280;30146;52.268;20.944;2022-11-09T10:26:13;100286.61;;;13.61;61.25
44441;BME280;30146;52.268;20.944;2022-11-09T10:28:51;100276.67;;;13.53;61.22
44441;BME280;30146;52.268;20.944;2022-11-09T10:31:45;100272.91;;;13.44;61.39
44441;BME280;30146;52.268;20.944;2022-11-09T10:34:19;100274.77;;;13.38;61.48
44441;BME280;30146;52.268;20.944;2022-11-09T10:37:00;100273.59;;;13.28;61.50
44441;BME280;30146;52.268;20.944;2022-11-09T10:39:41;100268.11;;;13.19;61.65
44441;BME280;30146;52.268;20.944;2022-11-09T10:42:34;100270.05;;;13.17;62.00
44441;BME280;30146;52.268;20.944;2022-11-09T10:45:30;100267.73;;;13.20;62.41
44441;BME280;30146;52.268;20.944;2022-11-09T10:48:30;100274.42;;;13.29;62.65
44441;BME280;30146;52.268;20.944;2022-11-09T10:51:38;100271.44;;;13.34;62.37
44441;BME280;30146;52.268;20.944;2022-11-09T10:54:30;100269.05;;;13.40;62.48
44441;BME280;30146;52.268;20.944;2022-11-09T10:57:23;100265.20;;;13.44;62.36
44441;BME280;30146;52.268;20.944;2022-11-09T11:00:18;100263.75;;;13.47;62.38
44441;BME280;30146;52.268;20.944;2022-11-09T11:03:16;100255.64;;;13.49;62.39
44441;BME280;30146;52.268;20.944;2022-11-09T11:06:13;100257.55;;;13.48;62.20
44441;BME280;30146;52.268;20.944;2022-11-09T11:09:19;100258.62;;;13.46;62.28
44441;BME280;30146;52.268;20.944;2022-11-09T11:12:15;100261.41;;;13.44;62.26
44441;BME280;30146;52.268;20.944;2022-11-09T11:15:22;100260.81;;;13.41;62.31
44441;BME280;30146;52.268;20.944;2022-11-09T11:18:18;100253.65;;;13.45;62.75
44441;BME280;30146;52.268;20.944;2022-11-09T11:21:15;100256.94;;;13.52;62.82
44441;BME280;30146;52.268;20.944;2022-11-09T11:24:19;100255.64;;;13.56;62.79
44441;BME280;30146;52.268;20.944;2022-11-09T11:27:13;100253.52;;;13.59;62.52
44441;BME280;30146;52.268;20.944;2022-11-09T11:30:12;100252.52;;;13.58;62.34
44441;BME280;30146;52.268;20.944;2022-11-09T11:33:14;100253.73;;;13.57;62.38
44441;BME280;30146;52.268;20.944;2022-11-09T11:36:14;100255.66;;;13.56;62.29
44441;BME280;30146;52.268;20.944;2022-11-09T11:39:14;100252.27;;;13.53;62.30
44441;BME280;30146;52.268;20.944;2022-11-09T11:42:24;100249.69;;;13.54;62.38
44441;BME280;30146;52.268;20.944;2022-11-09T11:45:25;100250.72;;;13.54;62.40
44441;BME280;30146;52.268;20.944;2022-11-09T11:49:01;100252.39;;;13.55;62.46
44441;BME280;30146;52.268;20.944;2022-11-09T11:52:00;100253.38;;;13.57;62.52
44441;BME280;30146;52.268;20.944;2022-11-09T11:55:06;100256.78;;;13.59;62.57
44441;BME280;30146;52.268;20.944;2022-11-09T11:58:09;100260.36;;;13.60;62.49
44441;BME280;30146;52.268;20.944;2022-11-09T12:01:10;100266.48;;;13.62;62.47
44441;BME280;30146;52.268;20.944;2022-11-09T12:04:17;100261.67;;;13.63;62.36
44441;BME280;30146;52.268;20.944;2022-11-09T12:07:24;100264.73;;;13.65;62.41
44441;BME280;30146;52.268;20.944;2022-11-09T12:10:25;100263.27;;;13.68;62.40
44441;BME280;30146;52.268;20.944;2022-11-09T12:13:34;100258.71;;;13.72;62.51
44441;BME280;30146;52.268;20.944;2022-11-09T12:16:40;100254.21;;;13.74;62.25
44441;BME280;30146;52.268;20.944;2022-11-09T12:20:00;100250.97;;;13.73;62.09
44441;BME280;30146;52.268;20.944;2022-11-09T12:23:00;100242.84;;;13.75;62.34
44441;BME280;30146;52.268;20.944;2022-11-09T12:26:04;100238.16;;;13.76;62.19
44441;BME280;30146;52.268;20.944;2022-11-09T12:29:09;100239.09;;;13.74;61.92
44441;BME280;30146;52.268;20.944;2022-11-09T12:32:15;100233.98;;;13.71;61.99
44441;BME280;30146;52.268;20.944;2022-11-09T12:35:27;100234.02;;;13.70;61.92
44441;BME280;30146;52.268;20.944;2022-11-09T12:38:22;100231.76;;;13.71;62.11
44441;BME280;30146;52.268;20.944;2022-11-09T12:41:17;100233.64;;;13.71;62.02
44441;BME280;30146;52.268;20.944;2022-11-09T12:44:14;100232.64;;;13.70;61.96
44441;BME280;30146;52.268;20.944;2022-11-09T12:47:07;100234.91;;;13.68;61.98
44441;BME280;30146;52.268;20.944;2022-11-09T12:50:05;100236.38;;;13.65;61.80
44441;BME280;30146;52.268;20.944;2022-11-09T12:52:55;100234.94;;;13.60;61.84
44441;BME280;30146;52.268;20.944;2022-11-09T12:55:48;100235.87;;;13.57;61.92
44441;BME280;30146;52.268;20.944;2022-11-09T12:58:40;100237.27;;;13.56;62.11
44441;BME280;30146;52.268;20.944;2022-11-09T13:01:48;100242.45;;;13.55;61.96
44441;BME280;30146;52.268;20.944;2022-11-09T13:04:54;100243.54;;;13.52;61.99
44441;BME280;30146;52.268;20.944;2022-11-09T13:07:50;100249.30;;;13.48;61.96
44441;BME280;30146;52.268;20.944;2022-11-09T13:10:41;100255.02;;;13.46;62.05
44441;BME280;30146;52.268;20.944;2022-11-09T13:13:31;100259.85;;;13.45;62.15
44441;BME280;30146;52.268;20.944;2022-11-09T13:16:35;100261.08;;;13.44;62.19
44441;BME280;30146;52.268;20.944;2022-11-09T13:19:49;100257.37;;;13.41;62.21
44441;BME280;30146;52.268;20.944;2022-11-09T13:22:58;100252.14;;;13.36;62.12
44441;BME280;30146;52.268;20.944;2022-11-09T13:25:50;100248.30;;;13.31;62.16
44441;BME280;30146;52.268;20.944;2022-11-09T13:28:48;100247.81;;;13.28;62.29
44441;BME280;30146;52.268;20.944;2022-11-09T13:38:45;100247.39;;;13.17;62.28
44441;BME280;30146;52.268;20.944;2022-11-09T13:41:43;100251.23;;;13.13;62.39
44441;BME280;30146;52.268;20.944;2022-11-09T13:44:34;100254.39;;;13.11;62.33
44441;BME280;30146;52.268;20.944;2022-11-09T13:47:31;100253.76;;;13.08;62.40
44441;BME280;30146;52.268;20.944;2022-11-09T13:50:24;100254.70;;;13.04;62.39
44441;BME280;30146;52.268;20.944;2022-11-09T13:53:49;100256.33;;;13.00;62.46
44441;BME280;30146;52.268;20.944;2022-11-09T13:56:41;100254.70;;;12.95;62.48
44441;BME280;30146;52.268;20.944;2022-11-09T13:59:35;100250.00;;;12.90;62.58
44441;BME280;30146;52.268;20.944;2022-11-09T14:02:26;100249.71;;;12.87;62.67